Time,TemperatureF,DewpointF,PressureIn,WindDirection,WindDirectionDegrees,WindSpeedMPH,WindSpeedGustMPH,Humidity,HourlyPrecipIn,Conditions,Clouds,dailyrainin,SoftwareType,DateUTC
2013-04-27 00:22:00,57.0,50.0,30.42,ENE,70,7.0,8.0,76,-99.99,,,-99.99,,2013-04-27 04:22:00,
2013-04-27 01:00:00,57.0,49.0,30.42,SE,140,7.0,7.0,73,-99.99,,,-99.99,,2013-04-27 05:00:00,
2013-04-27 01:11:00,57.0,49.0,30.42,SE,140,7.0,7.0,73,-99.99,,,-99.99,,2013-04-27 05:11:00,
2013-04-27 01:22:00,57.0,49.0,30.42,SE,140,7.0,7.0,73,-99.99,,,-99.99,,2013-04-27 05:22:00,
2013-04-27 01:42:00,57.0,49.0,30.42,SE,140,7.0,7.0,73,-99.99,,,-99.99,,2013-04-27 05:42:00,
2013-04-27 01:51:00,57.0,49.0,30.42,SE,140,7.0,7.0,73,-99.99,,,-99.99,,2013-04-27 05:51:00,
2013-04-27 02:11:00,56.0,55.0,30.41,SSE,160,5.0,5.0,96,-99.99,,,-99.99,,2013-04-27 06:11:00,
2013-04-27 02:21:00,56.0,55.0,30.41,SSE,160,5.0,5.0,96,-99.99,,,-99.99,,2013-04-27 06:21:00,
2013-04-27 03:21:00,55.0,54.0,30.41,West,280,3.0,3.0,96,-99.99,,,-99.99,,2013-04-27 07:21:00,
2013-04-27 04:11:00,55.0,55.0,30.40,North,360,3.0,3.0,100,-99.99,,,-99.99,,2013-04-27 08:11:00,
2013-04-27 04:21:00,55.0,55.0,30.40,North,360,3.0,3.0,100,-99.99,,,-99.99,,2013-04-27 08:21:00,
2013-04-27 05:21:00,53.0,53.0,30.40,West,270,5.0,5.0,100,-99.99,,,-99.99,,2013-04-27 09:21:00,
2013-04-27 06:11:00,52.0,52.0,30.41,NW,320,5.0,5.0,100,-99.99,,,-99.99,,2013-04-27 10:11:00,
2013-04-27 06:22:00,52.0,52.0,30.41,NW,320,5.0,5.0,100,-99.99,,,-99.99,,2013-04-27 10:22:00,
2013-04-27 07:21:00,53.0,53.0,30.42,North,360,5.0,5.0,100,-99.99,,,-99.99,,2013-04-27 11:21:00,
2013-04-27 08:21:00,54.0,54.0,30.44,NE,40,10.0,11.0,100,-99.99,,,-99.99,,2013-04-27 12:21:00,
2013-04-27 09:00:00,56.0,46.0,30.45,NE,40,9.0,10.0,70,-99.99,,,-99.99,,2013-04-27 13:00:00,
2013-04-27 09:21:00,56.0,46.0,30.45,NE,40,9.0,10.0,70,-99.99,,,-99.99,,2013-04-27 13:21:00,
2013-04-27 09:32:00,56.0,46.0,30.45,NE,40,9.0,10.0,70,-99.99,,,-99.99,,2013-04-27 13:32:00,
2013-04-27 09:41:00,56.0,46.0,30.45,NE,40,9.0,10.0,70,-99.99,,,-99.99,,2013-04-27 13:41:00,
2013-04-27 09:52:00,56.0,46.0,30.45,NE,40,9.0,10.0,70,-99.99,,,-99.99,,2013-04-27 13:52:00,
2013-04-27 10:00:00,57.0,48.0,30.43,NNE,20,6.0,6.0,71,-99.99,,,-99.99,,2013-04-27 14:00:00,
2013-04-27 10:21:00,57.0,48.0,30.43,NNE,20,6.0,6.0,71,-99.99,,,-99.99,,2013-04-27 14:21:00,
2013-04-27 10:31:00,57.0,48.0,30.43,NNE,20,6.0,6.0,71,-99.99,,,-99.99,,2013-04-27 14:31:00,
2013-04-27 10:41:00,57.0,48.0,30.43,NNE,20,6.0,6.0,71,-99.99,,,-99.99,,2013-04-27 14:41:00,
2013-04-27 10:52:00,57.0,48.0,30.43,NNE,20,6.0,6.0,71,-99.99,,,-99.99,,2013-04-27 14:52:00,
2013-04-27 11:21:00,57.0,49.0,30.44,North,360,5.0,5.0,76,-99.99,,,-99.99,,2013-04-27 15:21:00,
2013-04-27 12:13:00,58.0,49.0,30.43,North,10,6.0,6.0,73,-99.99,,,-99.99,,2013-04-27 16:13:00,
2013-04-27 12:22:00,58.0,49.0,30.43,North,10,6.0,6.0,73,-99.99,,,-99.99,,2013-04-27 16:22:00,
2013-04-27 13:11:00,59.0,44.0,30.41,North,0,0.0,1.0,55,-99.99,,,-99.99,,2013-04-27 17:11:00,
2013-04-27 13:22:00,59.0,44.0,30.41,North,0,0.0,1.0,55,-99.99,,,-99.99,,2013-04-27 17:22:00,
2013-04-27 14:21:00,62.0,43.0,30.38,North,0,0.0,1.0,50,-99.99,,,-99.99,,2013-04-27 18:21:00,
2013-04-27 14:31:00,62.0,43.0,30.38,North,0,0.0,1.0,50,-99.99,,,-99.99,,2013-04-27 18:31:00,
2013-04-27 15:21:00,62.0,44.0,30.37,SSW,210,2.0,2.0,53,-99.99,,,-99.99,,2013-04-27 19:21:00,
2013-04-27 16:21:00,62.0,48.0,30.36,SSW,210,3.0,3.0,60,-99.99,,,-99.99,,2013-04-27 20:21:00,
2013-04-27 17:11:00,62.0,47.0,30.34,South,170,3.0,3.0,57,-99.99,,,-99.99,,2013-04-27 21:11:00,
2013-04-27 17:21:00,62.0,47.0,30.34,South,170,3.0,3.0,57,-99.99,,,-99.99,,2013-04-27 21:21:00,
2013-04-27 18:22:00,63.0,45.0,30.33,SSE,160,1.0,1.0,51,-99.99,,,-99.99,,2013-04-27 22:22:00,
2013-04-27 19:11:00,63.0,46.0,30.32,SSE,160,3.0,3.0,55,-99.99,,,-99.99,,2013-04-27 23:11:00,
2013-04-27 19:22:00,63.0,46.0,30.32,SSE,160,3.0,3.0,55,-99.99,,,-99.99,,2013-04-27 23:22:00,
2013-04-27 19:32:00,63.0,46.0,30.32,SSE,160,3.0,3.0,55,-99.99,,,-99.99,,2013-04-27 23:32:00,
2013-04-27 20:00:00,63.0,42.0,30.32,SE,140,5.0,5.0,44,-99.99,,,-99.99,,2013-04-28 00:00:00,
2013-04-27 20:11:00,63.0,42.0,30.32,SE,140,5.0,5.0,44,-99.99,,,-99.99,,2013-04-28 00:11:00,
2013-04-27 20:21:00,63.0,42.0,30.32,SE,140,5.0,5.0,44,-99.99,,,-99.99,,2013-04-28 00:21:00,
2013-04-27 20:31:00,63.0,42.0,30.32,SE,140,5.0,5.0,44,-99.99,,,-99.99,,2013-04-28 00:31:00,
2013-04-27 20:42:00,63.0,42.0,30.32,SE,140,5.0,5.0,44,-99.99,,,-99.99,,2013-04-28 00:42:00,
2013-04-27 20:51:00,63.0,42.0,30.32,SE,140,5.0,5.0,44,-99.99,,,-99.99,,2013-04-28 00:51:00,
2013-04-27 21:21:00,62.0,50.0,30.32,ESE,110,3.0,3.0,65,-99.99,,,-99.99,,2013-04-28 01:21:00,
2013-04-27 22:11:00,60.0,56.0,30.33,SSE,160,14.0,15.0,85,-99.99,,,-99.99,,2013-04-28 02:11:00,
2013-04-27 22:21:00,60.0,56.0,30.33,SSE,160,14.0,15.0,85,-99.99,,,-99.99,,2013-04-28 02:21:00,
2013-04-27 23:00:00,59.0,52.0,30.32,SSE,160,17.0,20.0,76,-99.99,,,-99.99,,2013-04-28 03:00:00,
2013-04-27 23:11:00,59.0,52.0,30.32,SSE,160,17.0,20.0,76,-99.99,,,-99.99,,2013-04-28 03:11:00,
2013-04-27 23:21:00,59.0,52.0,30.32,SSE,160,17.0,20.0,76,-99.99,,,-99.99,,2013-04-28 03:21:00,
2013-04-27 23:42:00,59.0,52.0,30.32,SSE,160,17.0,20.0,76,-99.99,,,-99.99,,2013-04-28 03:42:00,
2013-04-27 23:53:00,59.0,52.0,30.32,SSE,160,17.0,20.0,76,-99.99,,,-99.99,,2013-04-28 03:53:00,